sensor_id;sensor_type;location;lat;lon;timestamp;P1;durP1;ratioP1;P2;durP2;ratioP2
15061;SDS011;7630;50.306;8.566;2023-06-26T00:00:33;10.70;;;9.90;;
15061;SDS011;7630;50.306;8.566;2023-06-26T00:04:34;11.73;;;10.83;;
15061;SDS011;7630;50.306;8.566;2023-06-26T00:08:37;12.10;;;10.90;;
15061;SDS011;7630;50.306;8.566;2023-06-26T00:12:38;12.57;;;11.30;;
15061;SDS011;7630;50.306;8.566;2023-06-26T00:16:40;12.20;;;11.13;;
15061;SDS011;7630;50.306;8.566;2023-06-26T00:20:43;15.60;;;14.37;;
15061;SDS011;7630;50.306;8.566;2023-06-26T00:24:44;13.67;;;12.33;;
15061;SDS011;7630;50.306;8.566;2023-06-26T00:28:48;13.73;;;12.53;;
15061;SDS011;7630;50.306;8.566;2023-06-26T00:32:49;12.63;;;11.67;;
15061;SDS011;7630;50.306;8.566;2023-06-26T00:36:51;11.97;;;11.07;;
15061;SDS011;7630;50.306;8.566;2023-06-26T00:40:52;12.73;;;11.70;;
15061;SDS011;7630;50.306;8.566;2023-06-26T00:44:57;14.23;;;12.83;;
15061;SDS011;7630;50.306;8.566;2023-06-26T00:48:58;13.23;;;12.13;;
15061;SDS011;7630;50.306;8.566;2023-06-26T00:53:00;13.67;;;12.47;;
15061;SDS011;7630;50.306;8.566;2023-06-26T00:57:02;12.63;;;11.33;;
15061;SDS011;7630;50.306;8.566;2023-06-26T01:01:03;14.30;;;13.00;;
15061;SDS011;7630;50.306;8.566;2023-06-26T01:05:06;14.57;;;13.10;;
15061;SDS011;7630;50.306;8.566;2023-06-26T01:09:10;14.07;;;12.73;;
15061;SDS011;7630;50.306;8.566;2023-06-26T01:13:12;16.43;;;14.97;;
15061;SDS011;7630;50.306;8.566;2023-06-26T01:17:15;17.30;;;15.57;;
15061;SDS011;7630;50.306;8.566;2023-06-26T01:21:17;17.53;;;15.00;;
15061;SDS011;7630;50.306;8.566;2023-06-26T01:29:44;13.33;;;11.60;;
15061;SDS011;7630;50.306;8.566;2023-06-26T01:33:47;14.13;;;12.97;;
15061;SDS011;7630;50.306;8.566;2023-06-26T01:37:49;15.33;;;14.07;;
15061;SDS011;7630;50.306;8.566;2023-06-26T01:41:50;14.90;;;13.60;;
15061;SDS011;7630;50.306;8.566;2023-06-26T01:45:54;14.87;;;13.57;;
15061;SDS011;7630;50.306;8.566;2023-06-26T01:50:00;14.97;;;13.03;;
15061;SDS011;7630;50.306;8.566;2023-06-26T01:54:01;16.27;;;13.63;;
15061;SDS011;7630;50.306;8.566;2023-06-26T01:58:04;16.43;;;15.03;;
15061;SDS011;7630;50.306;8.566;2023-06-26T02:02:07;14.93;;;13.60;;
15061;SDS011;7630;50.306;8.566;2023-06-26T02:06:09;13.77;;;12.50;;
15061;SDS011;7630;50.306;8.566;2023-06-26T02:10:10;12.17;;;10.97;;
15061;SDS011;7630;50.306;8.566;2023-06-26T02:14:11;15.10;;;13.73;;
15061;SDS011;7630;50.306;8.566;2023-06-26T02:18:13;12.93;;;11.93;;
15061;SDS011;7630;50.306;8.566;2023-06-26T02:22:14;12.57;;;11.47;;
15061;SDS011;7630;50.306;8.566;2023-06-26T02:26:16;13.87;;;12.53;;
15061;SDS011;7630;50.306;8.566;2023-06-26T02:30:17;14.83;;;13.57;;
15061;SDS011;7630;50.306;8.566;2023-06-26T02:34:18;14.30;;;13.10;;
15061;SDS011;7630;50.306;8.566;2023-06-26T02:38:19;13.90;;;12.73;;
15061;SDS011;7630;50.306;8.566;2023-06-26T02:42:23;13.67;;;12.47;;
15061;SDS011;7630;50.306;8.566;2023-06-26T02:46:24;14.47;;;13.33;;
15061;SDS011;7630;50.306;8.566;2023-06-26T02:50:25;13.73;;;12.63;;
15061;SDS011;7630;50.306;8.566;2023-06-26T02:54:28;13.40;;;12.13;;
15061;SDS011;7630;50.306;8.566;2023-06-26T02:58:30;13.90;;;12.37;;
15061;SDS011;7630;50.306;8.566;2023-06-26T03:02:31;14.33;;;12.97;;
15061;SDS011;7630;50.306;8.566;2023-06-26T03:06:32;13.87;;;12.63;;
15061;SDS011;7630;50.306;8.566;2023-06-26T03:10:33;14.60;;;13.40;;
15061;SDS011;7630;50.306;8.566;2023-06-26T03:14:34;20.50;;;12.67;;
15061;SDS011;7630;50.306;8.566;2023-06-26T03:18:35;15.00;;;12.07;;
15061;SDS011;7630;50.306;8.566;2023-06-26T03:22:36;14.07;;;12.77;;
15061;SDS011;7630;50.306;8.566;2023-06-26T03:26:37;14.03;;;12.87;;
15061;SDS011;7630;50.306;8.566;2023-06-26T03:30:39;13.87;;;12.63;;
15061;SDS011;7630;50.306;8.566;2023-06-26T03:34:40;13.97;;;12.40;;
15061;SDS011;7630;50.306;8.566;2023-06-26T03:38:42;13.70;;;12.23;;
15061;SDS011;7630;50.306;8.566;2023-06-26T03:42:43;13.80;;;12.50;;
15061;SDS011;7630;50.306;8.566;2023-06-26T03:46:44;15.23;;;13.37;;
15061;SDS011;7630;50.306;8.566;2023-06-26T03:50:45;16.30;;;14.07;;
15061;SDS011;7630;50.306;8.566;2023-06-26T03:54:46;16.27;;;14.67;;
15061;SDS011;7630;50.306;8.566;2023-06-26T03:58:49;15.23;;;13.73;;
15061;SDS011;7630;50.306;8.566;2023-06-26T04:02:50;13.97;;;12.17;;
15061;SDS011;7630;50.306;8.566;2023-06-26T04:06:51;13.80;;;12.50;;
15061;SDS011;7630;50.306;8.566;2023-06-26T04:10:53;14.27;;;12.73;;
15061;SDS011;7630;50.306;8.566;2023-06-26T04:14:56;15.50;;;14.20;;
15061;SDS011;7630;50.306;8.566;2023-06-26T04:18:57;13.43;;;12.33;;
15061;SDS011;7630;50.306;8.566;2023-06-26T04:22:58;12.80;;;11.60;;
15061;SDS011;7630;50.306;8.566;2023-06-26T04:26:59;14.03;;;12.70;;
15061;SDS011;7630;50.306;8.566;2023-06-26T04:31:01;14.23;;;12.80;;
15061;SDS011;7630;50.306;8.566;2023-06-26T04:35:04;11.47;;;10.50;;
15061;SDS011;7630;50.306;8.566;2023-06-26T04:39:05;11.07;;;10.17;;
15061;SDS011;7630;50.306;8.566;2023-06-26T04:43:07;12.57;;;11.47;;
15061;SDS011;7630;50.306;8.566;2023-06-26T04:47:08;11.27;;;10.40;;
15061;SDS011;7630;50.306;8.566;2023-06-26T04:51:10;11.60;;;10.70;;
15061;SDS011;7630;50.306;8.566;2023-06-26T04:55:11;11.90;;;10.80;;
15061;SDS011;7630;50.306;8.566;2023-06-26T04:59:13;12.00;;;10.83;;
15061;SDS011;7630;50.306;8.566;2023-06-26T05:03:15;11.83;;;10.73;;
15061;SDS011;7630;50.306;8.566;2023-06-26T05:07:18;10.93;;;9.93;;
15061;SDS011;7630;50.306;8.566;2023-06-26T05:11:19;11.17;;;9.27;;
15061;SDS011;7630;50.306;8.566;2023-06-26T05:15:20;9.70;;;8.83;;
15061;SDS011;7630;50.306;8.566;2023-06-26T05:19:21;9.70;;;8.80;;
15061;SDS011;7630;50.306;8.566;2023-06-26T05:23:22;9.27;;;8.43;;
15061;SDS011;7630;50.306;8.566;2023-06-26T05:27:26;9.40;;;8.50;;
15061;SDS011;7630;50.306;8.566;2023-06-26T05:31:28;9.40;;;8.60;;
15061;SDS011;7630;50.306;8.566;2023-06-26T05:35:36;9.50;;;8.47;;
15061;SDS011;7630;50.306;8.566;2023-06-26T05:39:38;9.07;;;8.37;;
15061;SDS011;7630;50.306;8.566;2023-06-26T05:43:39;8.40;;;7.60;;
15061;SDS011;7630;50.306;8.566;2023-06-26T05:47:41;9.37;;;8.47;;
15061;SDS011;7630;50.306;8.566;2023-06-26T05:51:43;7.73;;;7.13;;
15061;SDS011;7630;50.306;8.566;2023-06-26T05:55:44;6.67;;;6.17;;
15061;SDS011;7630;50.306;8.566;2023-06-26T05:59:46;6.67;;;6.07;;
15061;SDS011;7630;50.306;8.566;2023-06-26T06:03:48;6.43;;;5.93;;
15061;SDS011;7630;50.306;8.566;2023-06-26T06:07:49;6.25;;;5.75;;
15061;SDS011;7630;50.306;8.566;2023-06-26T06:11:51;6.33;;;5.83;;
15061;SDS011;7630;50.306;8.566;2023-06-26T06:15:52;6.55;;;6.05;;
15061;SDS011;7630;50.306;8.566;2023-06-26T06:19:53;6.28;;;5.67;;
15061;SDS011;7630;50.306;8.566;2023-06-26T06:23:54;6.35;;;5.90;;
15061;SDS011;7630;50.306;8.566;2023-06-26T06:27:56;6.00;;;5.60;;
15061;SDS011;7630;50.306;8.566;2023-06-26T06:31:57;6.45;;;5.95;;
15061;SDS011;7630;50.306;8.566;2023-06-26T06:35:58;6.80;;;6.25;;
15061;SDS011;7630;50.306;8.566;2023-06-26T06:39:59;6.37;;;5.87;;
15061;SDS011;7630;50.306;8.566;2023-06-26T06:44:00;7.33;;;6.65;;
15061;SDS011;7630;50.306;8.566;2023-06-26T06:48:01;7.83;;;7.33;;
15061;SDS011;7630;50.306;8.566;2023-06-26T06:52:03;7.90;;;7.30;;
15061;SDS011;7630;50.306;8.566;2023-06-26T06:56:04;8.80;;;8.20;;
15061;SDS011;7630;50.306;8.566;2023-06-26T07:00:06;7.90;;;7.33;;
15061;SDS011;7630;50.306;8.566;2023-06-26T07:04:09;8.37;;;7.60;;
15061;SDS011;7630;50.306;8.566;2023-06-26T07:08:10;9.17;;;8.47;;
15061;SDS011;7630;50.306;8.566;2023-06-26T07:12:11;7.60;;;6.87;;
15061;SDS011;7630;50.306;8.566;2023-06-26T07:16:12;9.63;;;8.67;;
15061;SDS011;7630;50.306;8.566;2023-06-26T07:20:15;9.63;;;8.73;;
15061;SDS011;7630;50.306;8.566;2023-06-26T07:24:17;22.80;;;7.87;;
15061;SDS011;7630;50.306;8.566;2023-06-26T07:28:18;8.90;;;8.03;;
15061;SDS011;7630;50.306;8.566;2023-06-26T07:32:19;9.57;;;8.77;;
15061;SDS011;7630;50.306;8.566;2023-06-26T07:36:20;8.83;;;8.07;;
15061;SDS011;7630;50.306;8.566;2023-06-26T07:40:21;8.47;;;7.63;;
15061;SDS011;7630;50.306;8.566;2023-06-26T07:44:22;9.10;;;8.40;;
15061;SDS011;7630;50.306;8.566;2023-06-26T07:48:24;8.23;;;7.63;;
15061;SDS011;7630;50.306;8.566;2023-06-26T07:52:25;8.47;;;7.67;;
15061;SDS011;7630;50.306;8.566;2023-06-26T07:56:27;8.70;;;7.13;;
15061;SDS011;7630;50.306;8.566;2023-06-26T08:00:28;7.90;;;7.23;;
15061;SDS011;7630;50.306;8.566;2023-06-26T08:04:29;8.20;;;7.50;;
15061;SDS011;7630;50.306;8.566;2023-06-26T08:08:32;9.10;;;8.40;;
15061;SDS011;7630;50.306;8.566;2023-06-26T08:12:33;8.03;;;7.33;;
15061;SDS011;7630;50.306;8.566;2023-06-26T08:16:35;7.80;;;7.20;;
15061;SDS011;7630;50.306;8.566;2023-06-26T08:20:36;9.33;;;8.63;;
15061;SDS011;7630;50.306;8.566;2023-06-26T08:24:38;10.10;;;9.07;;
15061;SDS011;7630;50.306;8.566;2023-06-26T08:28:39;8.17;;;7.60;;
15061;SDS011;7630;50.306;8.566;2023-06-26T08:32:40;9.03;;;8.33;;
15061;SDS011;7630;50.306;8.566;2023-06-26T08:36:41;9.87;;;9.17;;
15061;SDS011;7630;50.306;8.566;2023-06-26T08:40:42;9.30;;;8.50;;
15061;SDS011;7630;50.306;8.566;2023-06-26T08:44:44;9.17;;;8.37;;
15061;SDS011;7630;50.306;8.566;2023-06-26T08:49:00;8.73;;;7.87;;
15061;SDS011;7630;50.306;8.566;2023-06-26T08:57:05;8.80;;;7.90;;
15061;SDS011;7630;50.306;8.566;2023-06-26T09:01:08;9.17;;;8.23;;
15061;SDS011;7630;50.306;8.566;2023-06-26T09:05:10;10.10;;;9.00;;
15061;SDS011;7630;50.306;8.566;2023-06-26T09:09:12;8.90;;;8.20;;
15061;SDS011;7630;50.306;8.566;2023-06-26T09:13:13;10.03;;;8.53;;
15061;SDS011;7630;50.306;8.566;2023-06-26T09:17:16;7.67;;;7.07;;
15061;SDS011;7630;50.306;8.566;2023-06-26T09:21:19;10.43;;;8.20;;
15061;SDS011;7630;50.306;8.566;2023-06-26T09:25:20;9.67;;;8.57;;
15061;SDS011;7630;50.306;8.566;2023-06-26T09:29:24;9.80;;;7.37;;
15061;SDS011;7630;50.306;8.566;2023-06-26T09:33:27;9.10;;;8.40;;
15061;SDS011;7630;50.306;8.566;2023-06-26T09:37:28;8.60;;;7.80;;
15061;SDS011;7630;50.306;8.566;2023-06-26T09:41:30;9.00;;;8.17;;
15061;SDS011;7630;50.306;8.566;2023-06-26T09:45:36;11.37;;;8.67;;
15061;SDS011;7630;50.306;8.566;2023-06-26T09:49:40;9.80;;;8.90;;
15061;SDS011;7630;50.306;8.566;2023-06-26T09:53:43;8.60;;;7.60;;
15061;SDS011;7630;50.306;8.566;2023-06-26T09:57:44;9.23;;;8.50;;
15061;SDS011;7630;50.306;8.566;2023-06-26T10:01:47;9.43;;;8.53;;
15061;SDS011;7630;50.306;8.566;2023-06-26T10:05:49;9.13;;;8.33;;
15061;SDS011;7630;50.306;8.566;2023-06-26T10:09:51;8.37;;;7.67;;
15061;SDS011;7630;50.306;8.566;2023-06-26T10:13:55;8.13;;;7.53;;
15061;SDS011;7630;50.306;8.566;2023-06-26T10:18:00;8.60;;;7.67;;
15061;SDS011;7630;50.306;8.566;2023-06-26T10:22:02;9.70;;;7.83;;
15061;SDS011;7630;50.306;8.566;2023-06-26T10:26:05;8.77;;;7.77;;
15061;SDS011;7630;50.306;8.566;2023-06-26T10:30:09;8.47;;;7.63;;
15061;SDS011;7630;50.306;8.566;2023-06-26T10:34:13;8.37;;;7.57;;
15061;SDS011;7630;50.306;8.566;2023-06-26T10:38:14;13.97;;;8.13;;
15061;SDS011;7630;50.306;8.566;2023-06-26T10:42:16;8.77;;;7.87;;
15061;SDS011;7630;50.306;8.566;2023-06-26T10:46:19;8.37;;;7.67;;
15061;SDS011;7630;50.306;8.566;2023-06-26T10:50:23;9.10;;;8.20;;
15061;SDS011;7630;50.306;8.566;2023-06-26T10:54:28;8.23;;;7.53;;
15061;SDS011;7630;50.306;8.566;2023-06-26T11:02:51;8.37;;;7.40;;
15061;SDS011;7630;50.306;8.566;2023-06-26T11:06:52;7.23;;;6.60;;
15061;SDS011;7630;50.306;8.566;2023-06-26T11:10:59;9.27;;;8.17;;
15061;SDS011;7630;50.306;8.566;2023-06-26T11:15:01;7.20;;;6.40;;
15061;SDS011;7630;50.306;8.566;2023-06-26T11:19:02;13.33;;;7.57;;
15061;SDS011;7630;50.306;8.566;2023-06-26T11:23:04;6.03;;;5.53;;
15061;SDS011;7630;50.306;8.566;2023-06-26T11:27:07;7.00;;;6.40;;
15061;SDS011;7630;50.306;8.566;2023-06-26T11:31:08;10.73;;;7.13;;
15061;SDS011;7630;50.306;8.566;2023-06-26T11:35:21;8.80;;;7.90;;
15061;SDS011;7630;50.306;8.566;2023-06-26T11:39:25;7.57;;;6.60;;
15061;SDS011;7630;50.306;8.566;2023-06-26T11:43:26;12.67;;;7.43;;
15061;SDS011;7630;50.306;8.566;2023-06-26T11:47:27;9.13;;;7.23;;
15061;SDS011;7630;50.306;8.566;2023-06-26T11:51:30;7.13;;;6.63;;
15061;SDS011;7630;50.306;8.566;2023-06-26T11:55:40;7.93;;;7.13;;
15061;SDS011;7630;50.306;8.566;2023-06-26T11:59:40;7.73;;;6.97;;
15061;SDS011;7630;50.306;8.566;2023-06-26T12:03:41;8.33;;;7.40;;
15061;SDS011;7630;50.306;8.566;2023-06-26T12:07:43;10.07;;;7.63;;
15061;SDS011;7630;50.306;8.566;2023-06-26T12:11:48;8.13;;;7.33;;
15061;SDS011;7630;50.306;8.566;2023-06-26T12:15:52;8.53;;;7.73;;
15061;SDS011;7630;50.306;8.566;2023-06-26T12:19:55;14.27;;;7.73;;
15061;SDS011;7630;50.306;8.566;2023-06-26T12:23:59;7.77;;;7.00;;
15061;SDS011;7630;50.306;8.566;2023-06-26T12:28:05;7.80;;;7.20;;
15061;SDS011;7630;50.306;8.566;2023-06-26T12:32:09;8.03;;;7.37;;
15061;SDS011;7630;50.306;8.566;2023-06-26T12:36:11;8.20;;;6.27;;
15061;SDS011;7630;50.306;8.566;2023-06-26T12:40:17;8.30;;;7.13;;
15061;SDS011;7630;50.306;8.566;2023-06-26T12:44:20;10.73;;;6.70;;
15061;SDS011;7630;50.306;8.566;2023-06-26T12:48:35;8.13;;;6.83;;
15061;SDS011;7630;50.306;8.566;2023-06-26T12:52:49;7.13;;;6.47;;
15061;SDS011;7630;50.306;8.566;2023-06-26T12:56:51;10.17;;;7.03;;
15061;SDS011;7630;50.306;8.566;2023-06-26T13:00:53;10.17;;;6.60;;
15061;SDS011;7630;50.306;8.566;2023-06-26T13:04:54;7.00;;;5.67;;
15061;SDS011;7630;50.306;8.566;2023-06-26T13:08:55;6.47;;;5.83;;
15061;SDS011;7630;50.306;8.566;2023-06-26T13:12:56;8.97;;;6.67;;
15061;SDS011;7630;50.306;8.566;2023-06-26T13:16:57;6.87;;;5.53;;
15061;SDS011;7630;50.306;8.566;2023-06-26T13:25:06;10.93;;;5.40;;
15061;SDS011;7630;50.306;8.566;2023-06-26T13:29:09;6.77;;;4.97;;
15061;SDS011;7630;50.306;8.566;2023-06-26T13:33:11;5.57;;;4.97;;
15061;SDS011;7630;50.306;8.566;2023-06-26T13:37:12;12.00;;;5.97;;
15061;SDS011;7630;50.306;8.566;2023-06-26T13:41:13;6.07;;;4.83;;
15061;SDS011;7630;50.306;8.566;2023-06-26T13:45:14;26.27;;;5.73;;
15061;SDS011;7630;50.306;8.566;2023-06-26T13:49:17;9.03;;;5.00;;
15061;SDS011;7630;50.306;8.566;2023-06-26T13:53:18;5.30;;;4.00;;
15061;SDS011;7630;50.306;8.566;2023-06-26T13:57:20;7.43;;;4.57;;
15061;SDS011;7630;50.306;8.566;2023-06-26T14:01:23;6.53;;;4.30;;
15061;SDS011;7630;50.306;8.566;2023-06-26T14:05:24;7.87;;;4.33;;
15061;SDS011;7630;50.306;8.566;2023-06-26T14:09:27;6.77;;;4.10;;
15061;SDS011;7630;50.306;8.566;2023-06-26T14:13:28;6.03;;;3.30;;
15061;SDS011;7630;50.306;8.566;2023-06-26T14:17:29;4.07;;;3.50;;
15061;SDS011;7630;50.306;8.566;2023-06-26T14:21:31;6.70;;;3.90;;
15061;SDS011;7630;50.306;8.566;2023-06-26T14:25:33;5.07;;;3.83;;
15061;SDS011;7630;50.306;8.566;2023-06-26T14:29:39;7.60;;;3.20;;
15061;SDS011;7630;50.306;8.566;2023-06-26T14:33:37;6.53;;;3.37;;
15061;SDS011;7630;50.306;8.566;2023-06-26T14:37:39;7.17;;;3.67;;
15061;SDS011;7630;50.306;8.566;2023-06-26T14:41:41;4.50;;;2.97;;
15061;SDS011;7630;50.306;8.566;2023-06-26T14:45:44;3.60;;;2.77;;
15061;SDS011;7630;50.306;8.566;2023-06-26T14:49:46;5.23;;;3.13;;
15061;SDS011;7630;50.306;8.566;2023-06-26T14:53:47;5.93;;;2.97;;
15061;SDS011;7630;50.306;8.566;2023-06-26T14:57:48;2.93;;;2.73;;
15061;SDS011;7630;50.306;8.566;2023-06-26T15:01:49;6.43;;;2.90;;
15061;SDS011;7630;50.306;8.566;2023-06-26T15:05:51;4.77;;;3.43;;
15061;SDS011;7630;50.306;8.566;2023-06-26T15:09:52;3.57;;;2.50;;
15061;SDS011;7630;50.306;8.566;2023-06-26T15:13:55;5.47;;;3.07;;
15061;SDS011;7630;50.306;8.566;2023-06-26T15:17:56;2.60;;;2.40;;
15061;SDS011;7630;50.306;8.566;2023-06-26T15:21:57;6.33;;;3.33;;
15061;SDS011;7630;50.306;8.566;2023-06-26T15:25:58;7.00;;;2.77;;
15061;SDS011;7630;50.306;8.566;2023-06-26T15:29:59;3.57;;;2.80;;
15061;SDS011;7630;50.306;8.566;2023-06-26T15:34:00;9.30;;;3.17;;
15061;SDS011;7630;50.306;8.566;2023-06-26T15:38:02;6.10;;;2.40;;
15061;SDS011;7630;50.306;8.566;2023-06-26T15:42:04;6.83;;;2.80;;
15061;SDS011;7630;50.306;8.566;2023-06-26T15:46:05;6.33;;;2.33;;
15061;SDS011;7630;50.306;8.566;2023-06-26T15:50:07;3.70;;;2.30;;
15061;SDS011;7630;50.306;8.566;2023-06-26T15:54:09;4.93;;;3.10;;
15061;SDS011;7630;50.306;8.566;2023-06-26T15:58:10;2.43;;;2.20;;
15061;SDS011;7630;50.306;8.566;2023-06-26T16:02:11;5.80;;;2.77;;
15061;SDS011;7630;50.306;8.566;2023-06-26T16:06:12;4.63;;;3.07;;
15061;SDS011;7630;50.306;8.566;2023-06-26T16:10:13;5.63;;;2.97;;
15061;SDS011;7630;50.306;8.566;2023-06-26T16:14:14;5.83;;;3.20;;
15061;SDS011;7630;50.306;8.566;2023-06-26T16:18:15;4.17;;;3.60;;
15061;SDS011;7630;50.306;8.566;2023-06-26T16:22:17;4.37;;;3.40;;
15061;SDS011;7630;50.306;8.566;2023-06-26T16:26:18;4.20;;;3.00;;
15061;SDS011;7630;50.306;8.566;2023-06-26T16:30:19;7.43;;;2.87;;
15061;SDS011;7630;50.306;8.566;2023-06-26T16:34:21;6.97;;;3.33;;
15061;SDS011;7630;50.306;8.566;2023-06-26T16:38:23;5.63;;;3.30;;
15061;SDS011;7630;50.306;8.566;2023-06-26T16:42:24;3.77;;;2.97;;
15061;SDS011;7630;50.306;8.566;2023-06-26T16:46:25;4.30;;;2.43;;
15061;SDS011;7630;50.306;8.566;2023-06-26T16:50:27;5.97;;;3.87;;
15061;SDS011;7630;50.306;8.566;2023-06-26T16:54:28;5.57;;;3.00;;
15061;SDS011;7630;50.306;8.566;2023-06-26T16:58:29;3.50;;;2.63;;
15061;SDS011;7630;50.306;8.566;2023-06-26T17:02:30;7.20;;;3.20;;
15061;SDS011;7630;50.306;8.566;2023-06-26T17:06:32;4.33;;;2.63;;
15061;SDS011;7630;50.306;8.566;2023-06-26T17:10:33;3.03;;;2.70;;
15061;SDS011;7630;50.306;8.566;2023-06-26T17:14:34;4.97;;;2.60;;
15061;SDS011;7630;50.306;8.566;2023-06-26T17:18:35;3.20;;;2.57;;
15061;SDS011;7630;50.306;8.566;2023-06-26T17:22:36;5.80;;;2.90;;
15061;SDS011;7630;50.306;8.566;2023-06-26T17:26:37;4.20;;;2.20;;
15061;SDS011;7630;50.306;8.566;2023-06-26T17:30:41;7.90;;;2.87;;
15061;SDS011;7630;50.306;8.566;2023-06-26T17:34:43;3.43;;;2.30;;
15061;SDS011;7630;50.306;8.566;2023-06-26T17:38:44;5.03;;;3.33;;
15061;SDS011;7630;50.306;8.566;2023-06-26T17:42:45;7.83;;;3.03;;
15061;SDS011;7630;50.306;8.566;2023-06-26T17:46:47;12.03;;;3.53;;
15061;SDS011;7630;50.306;8.566;2023-06-26T17:50:48;2.40;;;2.10;;
15061;SDS011;7630;50.306;8.566;2023-06-26T17:54:50;5.40;;;3.30;;
15061;SDS011;7630;50.306;8.566;2023-06-26T17:58:51;3.27;;;1.90;;
15061;SDS011;7630;50.306;8.566;2023-06-26T18:02:53;3.83;;;2.40;;
15061;SDS011;7630;50.306;8.566;2023-06-26T18:06:54;2.87;;;2.13;;
15061;SDS011;7630;50.306;8.566;2023-06-26T18:10:55;4.63;;;2.40;;
15061;SDS011;7630;50.306;8.566;2023-06-26T18:14:56;3.57;;;2.30;;
15061;SDS011;7630;50.306;8.566;2023-06-26T18:18:59;9.07;;;2.50;;
15061;SDS011;7630;50.306;8.566;2023-06-26T18:23:01;5.57;;;2.30;;
15061;SDS011;7630;50.306;8.566;2023-06-26T18:27:03;5.00;;;2.57;;
15061;SDS011;7630;50.306;8.566;2023-06-26T18:31:05;8.10;;;3.43;;
15061;SDS011;7630;50.306;8.566;2023-06-26T18:35:08;4.93;;;2.50;;
15061;SDS011;7630;50.306;8.566;2023-06-26T18:39:09;5.27;;;2.13;;
15061;SDS011;7630;50.306;8.566;2023-06-26T18:43:12;3.43;;;3.03;;
15061;SDS011;7630;50.306;8.566;2023-06-26T18:47:14;5.70;;;2.67;;
15061;SDS011;7630;50.306;8.566;2023-06-26T18:51:15;9.60;;;2.77;;
15061;SDS011;7630;50.306;8.566;2023-06-26T18:55:16;6.70;;;2.80;;
15061;SDS011;7630;50.306;8.566;2023-06-26T18:59:18;10.43;;;2.83;;
15061;SDS011;7630;50.306;8.566;2023-06-26T19:03:19;4.30;;;2.30;;
15061;SDS011;7630;50.306;8.566;2023-06-26T19:07:20;4.57;;;2.87;;
15061;SDS011;7630;50.306;8.566;2023-06-26T19:11:21;6.87;;;2.90;;
15061;SDS011;7630;50.306;8.566;2023-06-26T19:15:23;7.17;;;2.40;;
15061;SDS011;7630;50.306;8.566;2023-06-26T19:19:24;2.57;;;2.37;;
15061;SDS011;7630;50.306;8.566;2023-06-26T19:23:25;5.00;;;3.43;;
15061;SDS011;7630;50.306;8.566;2023-06-26T19:27:26;4.23;;;2.30;;
15061;SDS011;7630;50.306;8.566;2023-06-26T19:31:28;4.50;;;2.70;;
15061;SDS011;7630;50.306;8.566;2023-06-26T19:35:29;6.00;;;2.83;;
15061;SDS011;7630;50.306;8.566;2023-06-26T19:39:31;4.73;;;2.50;;
15061;SDS011;7630;50.306;8.566;2023-06-26T19:43:32;4.57;;;2.70;;
15061;SDS011;7630;50.306;8.566;2023-06-26T19:47:33;4.93;;;2.90;;
15061;SDS011;7630;50.306;8.566;2023-06-26T19:51:36;6.40;;;2.87;;
15061;SDS011;7630;50.306;8.566;2023-06-26T19:55:37;8.33;;;4.07;;
15061;SDS011;7630;50.306;8.566;2023-06-26T19:59:38;6.00;;;2.67;;
15061;SDS011;7630;50.306;8.566;2023-06-26T20:03:39;6.57;;;3.20;;
15061;SDS011;7630;50.306;8.566;2023-06-26T20:07:41;6.27;;;2.77;;
15061;SDS011;7630;50.306;8.566;2023-06-26T20:11:42;4.80;;;2.40;;
15061;SDS011;7630;50.306;8.566;2023-06-26T20:15:43;6.33;;;2.40;;
15061;SDS011;7630;50.306;8.566;2023-06-26T20:19:44;3.10;;;2.20;;
15061;SDS011;7630;50.306;8.566;2023-06-26T20:23:45;2.57;;;2.23;;
15061;SDS011;7630;50.306;8.566;2023-06-26T20:27:47;3.90;;;2.33;;
15061;SDS011;7630;50.306;8.566;2023-06-26T20:31:48;3.57;;;2.93;;
15061;SDS011;7630;50.306;8.566;2023-06-26T20:35:49;2.87;;;2.23;;
15061;SDS011;7630;50.306;8.566;2023-06-26T20:39:51;6.37;;;2.50;;
15061;SDS011;7630;50.306;8.566;2023-06-26T20:43:53;3.13;;;2.47;;
15061;SDS011;7630;50.306;8.566;2023-06-26T20:47:55;2.47;;;2.27;;
15061;SDS011;7630;50.306;8.566;2023-06-26T20:51:56;2.60;;;2.30;;
15061;SDS011;7630;50.306;8.566;2023-06-26T20:55:58;3.97;;;3.20;;
15061;SDS011;7630;50.306;8.566;2023-06-26T21:00:00;3.97;;;2.57;;
15061;SDS011;7630;50.306;8.566;2023-06-26T21:04:01;2.33;;;2.20;;
15061;SDS011;7630;50.306;8.566;2023-06-26T21:08:03;5.03;;;2.60;;
15061;SDS011;7630;50.306;8.566;2023-06-26T21:12:04;6.30;;;2.63;;
15061;SDS011;7630;50.306;8.566;2023-06-26T21:16:06;4.73;;;2.37;;
15061;SDS011;7630;50.306;8.566;2023-06-26T21:20:07;3.20;;;2.90;;
15061;SDS011;7630;50.306;8.566;2023-06-26T21:24:08;4.27;;;2.87;;
15061;SDS011;7630;50.306;8.566;2023-06-26T21:28:09;5.17;;;2.40;;
15061;SDS011;7630;50.306;8.566;2023-06-26T21:32:10;3.67;;;2.47;;
15061;SDS011;7630;50.306;8.566;2023-06-26T21:36:12;5.13;;;2.63;;
15061;SDS011;7630;50.306;8.566;2023-06-26T21:40:13;3.20;;;2.10;;
15061;SDS011;7630;50.306;8.566;2023-06-26T21:44:14;3.03;;;2.27;;
15061;SDS011;7630;50.306;8.566;2023-06-26T21:48:15;2.53;;;2.20;;
15061;SDS011;7630;50.306;8.566;2023-06-26T21:52:16;7.07;;;3.90;;
15061;SDS011;7630;50.306;8.566;2023-06-26T21:56:17;3.53;;;2.43;;
15061;SDS011;7630;50.306;8.566;2023-06-26T22:00:18;2.53;;;2.13;;
15061;SDS011;7630;50.306;8.566;2023-06-26T22:04:19;4.97;;;2.30;;
15061;SDS011;7630;50.306;8.566;2023-06-26T22:08:20;4.00;;;2.23;;
15061;SDS011;7630;50.306;8.566;2023-06-26T22:12:21;3.77;;;2.37;;
15061;SDS011;7630;50.306;8.566;2023-06-26T22:16:23;2.20;;;1.87;;
15061;SDS011;7630;50.306;8.566;2023-06-26T22:20:24;4.43;;;2.73;;
15061;SDS011;7630;50.306;8.566;2023-06-26T22:24:26;3.40;;;2.90;;
15061;SDS011;7630;50.306;8.566;2023-06-26T22:28:28;9.17;;;3.40;;
15061;SDS011;7630;50.306;8.566;2023-06-26T22:32:29;3.33;;;2.70;;
15061;SDS011;7630;50.306;8.566;2023-06-26T22:36:31;3.60;;;2.80;;
15061;SDS011;7630;50.306;8.566;2023-06-26T22:40:32;2.43;;;2.23;;
15061;SDS011;7630;50.306;8.566;2023-06-26T22:44:34;3.37;;;2.80;;
15061;SDS011;7630;50.306;8.566;2023-06-26T22:48:35;4.17;;;2.97;;
15061;SDS011;7630;50.306;8.566;2023-06-26T22:52:38;2.80;;;2.40;;
15061;SDS011;7630;50.306;8.566;2023-06-26T22:56:39;2.80;;;2.60;;
15061;SDS011;7630;50.306;8.566;2023-06-26T23:00:42;2.40;;;2.20;;
15061;SDS011;7630;50.306;8.566;2023-06-26T23:04:43;3.03;;;2.10;;
15061;SDS011;7630;50.306;8.566;2023-06-26T23:08:45;2.97;;;2.20;;
15061;SDS011;7630;50.306;8.566;2023-06-26T23:12:46;2.33;;;2.17;;
15061;SDS011;7630;50.306;8.566;2023-06-26T23:16:50;2.87;;;2.57;;
15061;SDS011;7630;50.306;8.566;2023-06-26T23:20:56;5.30;;;2.27;;
15061;SDS011;7630;50.306;8.566;2023-06-26T23:24:57;4.30;;;2.20;;
15061;SDS011;7630;50.306;8.566;2023-06-26T23:28:59;4.80;;;2.50;;
15061;SDS011;7630;50.306;8.566;2023-06-26T23:33:01;2.50;;;2.30;;
15061;SDS011;7630;50.306;8.566;2023-06-26T23:37:11;2.00;;;1.90;;
15061;SDS011;7630;50.306;8.566;2023-06-26T23:41:12;5.03;;;2.30;;
15061;SDS011;7630;50.306;8.566;2023-06-26T23:45:16;3.50;;;2.60;;
15061;SDS011;7630;50.306;8.566;2023-06-26T23:49:18;4.87;;;2.20;;
15061;SDS011;7630;50.306;8.566;2023-06-26T23:53:19;3.87;;;2.30;;
15061;SDS011;7630;50.306;8.566;2023-06-26T23:57:20;8.80;;;2.83;;
